sensor_id;sensor_type;location;lat;lon;timestamp;P1;durP1;ratioP1;P2;durP2;ratioP2
22449;SDS011;11392;57.390;-2.468;2023-04-24T00:02:07;14.68;;;4.85;;
22449;SDS011;11392;57.390;-2.468;2023-04-24T00:04:37;16.17;;;4.80;;
22449;SDS011;11392;57.390;-2.468;2023-04-24T00:07:07;8.13;;;3.90;;
22449;SDS011;11392;57.390;-2.468;2023-04-24T00:09:35;14.40;;;3.80;;
22449;SDS011;11392;57.390;-2.468;2023-04-24T00:12:02;20.35;;;4.57;;
22449;SDS011;11392;57.390;-2.468;2023-04-24T00:14:32;14.48;;;4.60;;
22449;SDS011;11392;57.390;-2.468;2023-04-24T00:16:59;13.07;;;4.80;;
22449;SDS011;11392;57.390;-2.468;2023-04-24T00:19:26;17.35;;;4.20;;
22449;SDS011;11392;57.390;-2.468;2023-04-24T00:21:53;16.23;;;4.05;;
22449;SDS011;11392;57.390;-2.468;2023-04-24T00:24:21;14.25;;;4.63;;
22449;SDS011;11392;57.390;-2.468;2023-04-24T00:26:48;9.48;;;3.63;;
22449;SDS011;11392;57.390;-2.468;2023-04-24T00:29:15;13.65;;;4.13;;
22449;SDS011;11392;57.390;-2.468;2023-04-24T00:31:42;13.55;;;4.78;;
22449;SDS011;11392;57.390;-2.468;2023-04-24T00:34:09;11.82;;;3.80;;
22449;SDS011;11392;57.390;-2.468;2023-04-24T00:36:38;11.93;;;3.90;;
22449;SDS011;11392;57.390;-2.468;2023-04-24T00:39:04;13.38;;;3.90;;
22449;SDS011;11392;57.390;-2.468;2023-04-24T00:41:32;14.73;;;5.05;;
22449;SDS011;11392;57.390;-2.468;2023-04-24T00:43:59;14.05;;;5.47;;
22449;SDS011;11392;57.390;-2.468;2023-04-24T00:46:26;12.07;;;4.55;;
22449;SDS011;11392;57.390;-2.468;2023-04-24T00:48:53;13.13;;;4.50;;
22449;SDS011;11392;57.390;-2.468;2023-04-24T00:51:20;17.92;;;4.13;;
22449;SDS011;11392;57.390;-2.468;2023-04-24T00:53:47;9.95;;;4.00;;
22449;SDS011;11392;57.390;-2.468;2023-04-24T00:56:14;11.63;;;3.92;;
22449;SDS011;11392;57.390;-2.468;2023-04-24T00:58:42;16.90;;;4.25;;
22449;SDS011;11392;57.390;-2.468;2023-04-24T01:01:09;12.23;;;4.15;;
22449;SDS011;11392;57.390;-2.468;2023-04-24T01:03:38;11.45;;;3.90;;
22449;SDS011;11392;57.390;-2.468;2023-04-24T01:06:07;9.43;;;3.20;;
22449;SDS011;11392;57.390;-2.468;2023-04-24T01:08:35;10.35;;;3.97;;
22449;SDS011;11392;57.390;-2.468;2023-04-24T01:11:03;13.23;;;3.75;;
22449;SDS011;11392;57.390;-2.468;2023-04-24T01:13:31;12.68;;;3.50;;
22449;SDS011;11392;57.390;-2.468;2023-04-24T01:15:59;10.75;;;3.53;;
22449;SDS011;11392;57.390;-2.468;2023-04-24T01:18:27;12.27;;;3.22;;
22449;SDS011;11392;57.390;-2.468;2023-04-24T01:20:58;9.20;;;3.20;;
22449;SDS011;11392;57.390;-2.468;2023-04-24T01:23:30;7.03;;;3.08;;
22449;SDS011;11392;57.390;-2.468;2023-04-24T01:25:58;11.60;;;3.22;;
22449;SDS011;11392;57.390;-2.468;2023-04-24T01:28:25;5.10;;;2.70;;
22449;SDS011;11392;57.390;-2.468;2023-04-24T01:30:52;7.40;;;2.63;;
22449;SDS011;11392;57.390;-2.468;2023-04-24T01:33:20;6.55;;;2.55;;
22449;SDS011;11392;57.390;-2.468;2023-04-24T01:35:48;7.45;;;2.78;;
22449;SDS011;11392;57.390;-2.468;2023-04-24T01:38:15;12.05;;;2.80;;
22449;SDS011;11392;57.390;-2.468;2023-04-24T01:40:43;6.20;;;2.63;;
22449;SDS011;11392;57.390;-2.468;2023-04-24T01:43:11;8.55;;;3.15;;
22449;SDS011;11392;57.390;-2.468;2023-04-24T01:45:39;15.02;;;3.60;;
22449;SDS011;11392;57.390;-2.468;2023-04-24T01:48:06;12.70;;;3.58;;
22449;SDS011;11392;57.390;-2.468;2023-04-24T01:50:34;11.52;;;3.33;;
22449;SDS011;11392;57.390;-2.468;2023-04-24T01:53:01;6.63;;;3.20;;
22449;SDS011;11392;57.390;-2.468;2023-04-24T01:55:28;7.70;;;2.95;;
22449;SDS011;11392;57.390;-2.468;2023-04-24T01:57:55;14.55;;;3.60;;
22449;SDS011;11392;57.390;-2.468;2023-04-24T02:00:23;6.38;;;2.85;;
22449;SDS011;11392;57.390;-2.468;2023-04-24T02:02:51;14.45;;;3.63;;
22449;SDS011;11392;57.390;-2.468;2023-04-24T02:05:18;13.65;;;3.63;;
22449;SDS011;11392;57.390;-2.468;2023-04-24T02:07:45;13.02;;;4.43;;
22449;SDS011;11392;57.390;-2.468;2023-04-24T02:10:12;10.43;;;3.88;;
22449;SDS011;11392;57.390;-2.468;2023-04-24T02:12:39;10.15;;;3.80;;
22449;SDS011;11392;57.390;-2.468;2023-04-24T02:15:06;9.30;;;3.92;;
22449;SDS011;11392;57.390;-2.468;2023-04-24T02:17:33;16.00;;;4.13;;
22449;SDS011;11392;57.390;-2.468;2023-04-24T02:20:01;13.57;;;3.78;;
22449;SDS011;11392;57.390;-2.468;2023-04-24T02:22:28;10.82;;;3.60;;
22449;SDS011;11392;57.390;-2.468;2023-04-24T02:24:55;15.90;;;4.45;;
22449;SDS011;11392;57.390;-2.468;2023-04-24T02:27:22;11.63;;;3.80;;
22449;SDS011;11392;57.390;-2.468;2023-04-24T02:29:50;9.82;;;3.80;;
22449;SDS011;11392;57.390;-2.468;2023-04-24T02:32:17;11.00;;;3.75;;
22449;SDS011;11392;57.390;-2.468;2023-04-24T02:34:44;13.48;;;3.25;;
22449;SDS011;11392;57.390;-2.468;2023-04-24T02:37:11;10.35;;;3.40;;
22449;SDS011;11392;57.390;-2.468;2023-04-24T02:39:38;9.73;;;4.05;;
22449;SDS011;11392;57.390;-2.468;2023-04-24T02:42:06;12.52;;;3.50;;
22449;SDS011;11392;57.390;-2.468;2023-04-24T02:44:34;9.82;;;3.25;;
22449;SDS011;11392;57.390;-2.468;2023-04-24T02:47:01;9.48;;;3.25;;
22449;SDS011;11392;57.390;-2.468;2023-04-24T02:49:28;9.30;;;3.05;;
22449;SDS011;11392;57.390;-2.468;2023-04-24T02:51:55;12.55;;;3.28;;
22449;SDS011;11392;57.390;-2.468;2023-04-24T02:54:22;14.55;;;4.55;;
22449;SDS011;11392;57.390;-2.468;2023-04-24T02:56:49;12.32;;;4.35;;
22449;SDS011;11392;57.390;-2.468;2023-04-24T02:59:16;11.32;;;4.25;;
22449;SDS011;11392;57.390;-2.468;2023-04-24T03:01:43;11.65;;;4.38;;
22449;SDS011;11392;57.390;-2.468;2023-04-24T03:04:10;15.35;;;5.05;;
22449;SDS011;11392;57.390;-2.468;2023-04-24T03:06:38;13.27;;;4.18;;
22449;SDS011;11392;57.390;-2.468;2023-04-24T03:09:05;18.38;;;4.28;;
22449;SDS011;11392;57.390;-2.468;2023-04-24T03:11:32;12.43;;;3.90;;
22449;SDS011;11392;57.390;-2.468;2023-04-24T03:13:59;10.68;;;3.90;;
22449;SDS011;11392;57.390;-2.468;2023-04-24T03:16:26;15.05;;;4.45;;
22449;SDS011;11392;57.390;-2.468;2023-04-24T03:18:53;16.90;;;3.50;;
22449;SDS011;11392;57.390;-2.468;2023-04-24T03:21:20;5.75;;;2.90;;
22449;SDS011;11392;57.390;-2.468;2023-04-24T03:23:47;10.68;;;3.33;;
22449;SDS011;11392;57.390;-2.468;2023-04-24T03:26:14;8.15;;;3.28;;
22449;SDS011;11392;57.390;-2.468;2023-04-24T03:28:41;14.73;;;3.10;;
22449;SDS011;11392;57.390;-2.468;2023-04-24T03:31:08;11.73;;;2.72;;
22449;SDS011;11392;57.390;-2.468;2023-04-24T03:33:35;9.13;;;2.72;;
22449;SDS011;11392;57.390;-2.468;2023-04-24T03:36:02;12.05;;;4.38;;
22449;SDS011;11392;57.390;-2.468;2023-04-24T03:38:31;10.63;;;3.40;;
22449;SDS011;11392;57.390;-2.468;2023-04-24T03:40:58;6.50;;;2.88;;
22449;SDS011;11392;57.390;-2.468;2023-04-24T03:43:25;12.82;;;4.00;;
22449;SDS011;11392;57.390;-2.468;2023-04-24T03:45:53;13.88;;;3.58;;
22449;SDS011;11392;57.390;-2.468;2023-04-24T03:48:20;13.40;;;3.63;;
22449;SDS011;11392;57.390;-2.468;2023-04-24T03:50:47;13.68;;;3.38;;
22449;SDS011;11392;57.390;-2.468;2023-04-24T03:53:14;9.73;;;2.78;;
22449;SDS011;11392;57.390;-2.468;2023-04-24T03:55:42;10.68;;;4.00;;
22449;SDS011;11392;57.390;-2.468;2023-04-24T03:58:09;8.82;;;2.65;;
22449;SDS011;11392;57.390;-2.468;2023-04-24T04:00:37;6.80;;;3.08;;
22449;SDS011;11392;57.390;-2.468;2023-04-24T04:03:06;7.97;;;2.33;;
22449;SDS011;11392;57.390;-2.468;2023-04-24T04:05:33;8.63;;;3.00;;
22449;SDS011;11392;57.390;-2.468;2023-04-24T04:08:00;11.65;;;3.00;;
22449;SDS011;11392;57.390;-2.468;2023-04-24T04:10:28;3.88;;;2.00;;
22449;SDS011;11392;57.390;-2.468;2023-04-24T04:12:55;9.10;;;3.22;;
22449;SDS011;11392;57.390;-2.468;2023-04-24T04:15:22;8.70;;;3.42;;
22449;SDS011;11392;57.390;-2.468;2023-04-24T04:17:49;11.75;;;3.10;;
22449;SDS011;11392;57.390;-2.468;2023-04-24T04:20:16;7.35;;;2.17;;
22449;SDS011;11392;57.390;-2.468;2023-04-24T04:22:43;8.60;;;2.42;;
22449;SDS011;11392;57.390;-2.468;2023-04-24T04:25:10;6.78;;;2.50;;
22449;SDS011;11392;57.390;-2.468;2023-04-24T04:27:37;9.50;;;2.92;;
22449;SDS011;11392;57.390;-2.468;2023-04-24T04:30:05;7.47;;;2.83;;
22449;SDS011;11392;57.390;-2.468;2023-04-24T04:32:33;6.70;;;2.55;;
22449;SDS011;11392;57.390;-2.468;2023-04-24T04:35:01;8.75;;;3.05;;
22449;SDS011;11392;57.390;-2.468;2023-04-24T04:37:32;9.23;;;3.03;;
22449;SDS011;11392;57.390;-2.468;2023-04-24T04:40:00;6.20;;;2.60;;
22449;SDS011;11392;57.390;-2.468;2023-04-24T04:42:28;13.13;;;2.90;;
22449;SDS011;11392;57.390;-2.468;2023-04-24T04:44:55;7.63;;;2.60;;
22449;SDS011;11392;57.390;-2.468;2023-04-24T04:47:23;7.97;;;2.85;;
22449;SDS011;11392;57.390;-2.468;2023-04-24T04:49:51;7.47;;;2.60;;
22449;SDS011;11392;57.390;-2.468;2023-04-24T04:52:18;8.32;;;2.60;;
22449;SDS011;11392;57.390;-2.468;2023-04-24T04:54:45;12.02;;;3.60;;
22449;SDS011;11392;57.390;-2.468;2023-04-24T04:57:12;8.43;;;2.75;;
22449;SDS011;11392;57.390;-2.468;2023-04-24T04:59:39;14.43;;;3.47;;
22449;SDS011;11392;57.390;-2.468;2023-04-24T05:02:07;8.77;;;2.83;;
22449;SDS011;11392;57.390;-2.468;2023-04-24T05:04:35;8.73;;;2.92;;
22449;SDS011;11392;57.390;-2.468;2023-04-24T05:07:02;8.82;;;2.53;;
22449;SDS011;11392;57.390;-2.468;2023-04-24T05:09:29;9.48;;;2.65;;
22449;SDS011;11392;57.390;-2.468;2023-04-24T05:11:56;8.65;;;2.63;;
22449;SDS011;11392;57.390;-2.468;2023-04-24T05:14:23;4.70;;;1.98;;
22449;SDS011;11392;57.390;-2.468;2023-04-24T05:16:51;6.25;;;2.20;;
22449;SDS011;11392;57.390;-2.468;2023-04-24T05:19:18;5.82;;;2.20;;
22449;SDS011;11392;57.390;-2.468;2023-04-24T05:21:45;6.85;;;2.10;;
22449;SDS011;11392;57.390;-2.468;2023-04-24T05:24:12;7.40;;;2.00;;
22449;SDS011;11392;57.390;-2.468;2023-04-24T05:26:39;3.15;;;1.90;;
22449;SDS011;11392;57.390;-2.468;2023-04-24T05:29:06;7.03;;;2.25;;
22449;SDS011;11392;57.390;-2.468;2023-04-24T05:31:34;6.63;;;2.10;;
22449;SDS011;11392;57.390;-2.468;2023-04-24T05:34:01;5.65;;;2.28;;
22449;SDS011;11392;57.390;-2.468;2023-04-24T05:36:28;7.72;;;2.58;;
22449;SDS011;11392;57.390;-2.468;2023-04-24T05:38:55;8.30;;;2.63;;
22449;SDS011;11392;57.390;-2.468;2023-04-24T05:41:22;6.65;;;2.38;;
22449;SDS011;11392;57.390;-2.468;2023-04-24T05:43:49;5.47;;;2.17;;
22449;SDS011;11392;57.390;-2.468;2023-04-24T05:46:17;15.57;;;2.83;;
22449;SDS011;11392;57.390;-2.468;2023-04-24T05:48:44;9.05;;;2.40;;
22449;SDS011;11392;57.390;-2.468;2023-04-24T05:51:12;12.60;;;2.50;;
22449;SDS011;11392;57.390;-2.468;2023-04-24T05:53:39;7.85;;;2.80;;
22449;SDS011;11392;57.390;-2.468;2023-04-24T05:56:06;10.10;;;2.65;;
22449;SDS011;11392;57.390;-2.468;2023-04-24T05:58:33;10.15;;;2.30;;
22449;SDS011;11392;57.390;-2.468;2023-04-24T06:01:00;6.82;;;2.05;;
22449;SDS011;11392;57.390;-2.468;2023-04-24T06:03:28;11.15;;;3.13;;
22449;SDS011;11392;57.390;-2.468;2023-04-24T06:05:55;6.60;;;2.00;;
22449;SDS011;11392;57.390;-2.468;2023-04-24T06:08:22;11.15;;;2.72;;
22449;SDS011;11392;57.390;-2.468;2023-04-24T06:10:49;10.63;;;2.88;;
22449;SDS011;11392;57.390;-2.468;2023-04-24T06:13:16;7.30;;;2.50;;
22449;SDS011;11392;57.390;-2.468;2023-04-24T06:15:43;7.75;;;2.55;;
22449;SDS011;11392;57.390;-2.468;2023-04-24T06:18:10;9.52;;;2.00;;
22449;SDS011;11392;57.390;-2.468;2023-04-24T06:20:38;11.05;;;2.90;;
22449;SDS011;11392;57.390;-2.468;2023-04-24T06:23:06;10.38;;;2.92;;
22449;SDS011;11392;57.390;-2.468;2023-04-24T06:25:33;8.98;;;3.00;;
22449;SDS011;11392;57.390;-2.468;2023-04-24T06:28:00;10.52;;;2.85;;
22449;SDS011;11392;57.390;-2.468;2023-04-24T06:30:29;6.70;;;2.53;;
22449;SDS011;11392;57.390;-2.468;2023-04-24T06:32:56;9.93;;;2.92;;
22449;SDS011;11392;57.390;-2.468;2023-04-24T06:35:31;8.82;;;2.90;;
22449;SDS011;11392;57.390;-2.468;2023-04-24T06:37:58;9.00;;;2.63;;
22449;SDS011;11392;57.390;-2.468;2023-04-24T06:40:25;14.93;;;3.03;;
22449;SDS011;11392;57.390;-2.468;2023-04-24T06:42:52;11.38;;;3.42;;
22449;SDS011;11392;57.390;-2.468;2023-04-24T06:45:19;12.02;;;3.50;;
22449;SDS011;11392;57.390;-2.468;2023-04-24T06:47:46;11.25;;;3.03;;
22449;SDS011;11392;57.390;-2.468;2023-04-24T06:50:13;7.72;;;2.10;;
22449;SDS011;11392;57.390;-2.468;2023-04-24T06:52:40;8.73;;;2.78;;
22449;SDS011;11392;57.390;-2.468;2023-04-24T06:55:07;9.27;;;2.88;;
22449;SDS011;11392;57.390;-2.468;2023-04-24T06:57:35;5.22;;;2.05;;
22449;SDS011;11392;57.390;-2.468;2023-04-24T07:00:02;6.00;;;2.80;;
22449;SDS011;11392;57.390;-2.468;2023-04-24T07:02:31;6.30;;;2.40;;
22449;SDS011;11392;57.390;-2.468;2023-04-24T07:04:58;8.63;;;2.00;;
22449;SDS011;11392;57.390;-2.468;2023-04-24T07:07:26;6.85;;;2.45;;
22449;SDS011;11392;57.390;-2.468;2023-04-24T07:09:53;8.27;;;2.33;;
22449;SDS011;11392;57.390;-2.468;2023-04-24T07:12:22;10.25;;;3.55;;
22449;SDS011;11392;57.390;-2.468;2023-04-24T07:14:50;13.32;;;3.00;;
22449;SDS011;11392;57.390;-2.468;2023-04-24T07:17:17;7.82;;;3.05;;
22449;SDS011;11392;57.390;-2.468;2023-04-24T07:19:44;7.55;;;3.05;;
22449;SDS011;11392;57.390;-2.468;2023-04-24T07:22:11;11.40;;;3.13;;
22449;SDS011;11392;57.390;-2.468;2023-04-24T07:24:43;11.35;;;3.08;;
22449;SDS011;11392;57.390;-2.468;2023-04-24T07:27:10;12.07;;;3.70;;
22449;SDS011;11392;57.390;-2.468;2023-04-24T07:29:38;9.88;;;4.32;;
22449;SDS011;11392;57.390;-2.468;2023-04-24T07:32:07;12.80;;;4.00;;
22449;SDS011;11392;57.390;-2.468;2023-04-24T07:34:34;10.82;;;3.05;;
22449;SDS011;11392;57.390;-2.468;2023-04-24T07:37:01;11.90;;;3.92;;
22449;SDS011;11392;57.390;-2.468;2023-04-24T07:39:29;15.20;;;3.00;;
22449;SDS011;11392;57.390;-2.468;2023-04-24T07:41:56;13.68;;;3.42;;
22449;SDS011;11392;57.390;-2.468;2023-04-24T07:44:25;11.32;;;2.97;;
22449;SDS011;11392;57.390;-2.468;2023-04-24T07:46:52;11.00;;;3.25;;
22449;SDS011;11392;57.390;-2.468;2023-04-24T07:49:19;10.82;;;3.00;;
22449;SDS011;11392;57.390;-2.468;2023-04-24T07:51:47;8.77;;;2.58;;
22449;SDS011;11392;57.390;-2.468;2023-04-24T07:54:14;9.23;;;2.28;;
22449;SDS011;11392;57.390;-2.468;2023-04-24T07:56:41;8.52;;;2.55;;
22449;SDS011;11392;57.390;-2.468;2023-04-24T07:59:10;6.50;;;2.22;;
22449;SDS011;11392;57.390;-2.468;2023-04-24T08:01:37;9.95;;;3.35;;
22449;SDS011;11392;57.390;-2.468;2023-04-24T08:04:04;5.32;;;2.00;;
22449;SDS011;11392;57.390;-2.468;2023-04-24T08:06:32;8.65;;;2.30;;
22449;SDS011;11392;57.390;-2.468;2023-04-24T08:09:00;8.15;;;2.00;;
22449;SDS011;11392;57.390;-2.468;2023-04-24T08:11:27;7.93;;;2.28;;
22449;SDS011;11392;57.390;-2.468;2023-04-24T08:13:54;8.93;;;2.75;;
22449;SDS011;11392;57.390;-2.468;2023-04-24T08:16:21;6.20;;;2.10;;
22449;SDS011;11392;57.390;-2.468;2023-04-24T08:18:50;10.52;;;3.10;;
22449;SDS011;11392;57.390;-2.468;2023-04-24T08:21:17;7.20;;;2.40;;
22449;SDS011;11392;57.390;-2.468;2023-04-24T08:23:45;8.63;;;2.38;;
22449;SDS011;11392;57.390;-2.468;2023-04-24T08:26:12;7.43;;;2.75;;
22449;SDS011;11392;57.390;-2.468;2023-04-24T08:28:40;6.53;;;2.63;;
22449;SDS011;11392;57.390;-2.468;2023-04-24T08:31:07;6.72;;;2.88;;
22449;SDS011;11392;57.390;-2.468;2023-04-24T08:33:34;8.15;;;2.58;;
22449;SDS011;11392;57.390;-2.468;2023-04-24T08:36:04;7.57;;;2.03;;
22449;SDS011;11392;57.390;-2.468;2023-04-24T08:38:32;11.93;;;2.83;;
22449;SDS011;11392;57.390;-2.468;2023-04-24T08:41:01;6.70;;;2.55;;
22449;SDS011;11392;57.390;-2.468;2023-04-24T08:43:28;8.13;;;2.67;;
22449;SDS011;11392;57.390;-2.468;2023-04-24T08:45:56;5.90;;;2.08;;
22449;SDS011;11392;57.390;-2.468;2023-04-24T08:48:24;6.40;;;2.40;;
22449;SDS011;11392;57.390;-2.468;2023-04-24T08:50:57;10.60;;;2.88;;
22449;SDS011;11392;57.390;-2.468;2023-04-24T08:53:25;5.57;;;1.90;;
22449;SDS011;11392;57.390;-2.468;2023-04-24T08:55:54;6.13;;;2.55;;
22449;SDS011;11392;57.390;-2.468;2023-04-24T08:58:22;6.10;;;2.35;;
22449;SDS011;11392;57.390;-2.468;2023-04-24T09:00:54;9.20;;;2.60;;
22449;SDS011;11392;57.390;-2.468;2023-04-24T09:03:22;7.95;;;2.22;;
22449;SDS011;11392;57.390;-2.468;2023-04-24T09:05:49;7.82;;;2.10;;
22449;SDS011;11392;57.390;-2.468;2023-04-24T09:08:17;10.57;;;2.70;;
22449;SDS011;11392;57.390;-2.468;2023-04-24T09:10:45;10.32;;;3.10;;
22449;SDS011;11392;57.390;-2.468;2023-04-24T09:13:16;8.35;;;2.50;;
22449;SDS011;11392;57.390;-2.468;2023-04-24T09:15:44;7.82;;;2.55;;
22449;SDS011;11392;57.390;-2.468;2023-04-24T09:18:12;10.40;;;3.25;;
22449;SDS011;11392;57.390;-2.468;2023-04-24T09:23:28;9.95;;;2.47;;
22449;SDS011;11392;57.390;-2.468;2023-04-24T09:25:59;7.15;;;2.65;;
22449;SDS011;11392;57.390;-2.468;2023-04-24T09:31:11;14.55;;;3.38;;
22449;SDS011;11392;57.390;-2.468;2023-04-24T09:34:00;7.72;;;2.80;;
22449;SDS011;11392;57.390;-2.468;2023-04-24T09:39:14;11.25;;;3.08;;
22449;SDS011;11392;57.390;-2.468;2023-04-24T09:41:46;5.82;;;2.45;;
22449;SDS011;11392;57.390;-2.468;2023-04-24T09:44:14;8.90;;;3.60;;
22449;SDS011;11392;57.390;-2.468;2023-04-24T09:46:44;18.48;;;5.35;;
22449;SDS011;11392;57.390;-2.468;2023-04-24T09:49:16;12.20;;;3.10;;
22449;SDS011;11392;57.390;-2.468;2023-04-24T09:51:51;9.98;;;3.17;;
22449;SDS011;11392;57.390;-2.468;2023-04-24T09:54:28;10.02;;;2.75;;
22449;SDS011;11392;57.390;-2.468;2023-04-24T09:56:56;7.40;;;2.25;;
22449;SDS011;11392;57.390;-2.468;2023-04-24T09:59:23;10.50;;;2.72;;
22449;SDS011;11392;57.390;-2.468;2023-04-24T10:01:50;11.30;;;2.47;;
22449;SDS011;11392;57.390;-2.468;2023-04-24T10:04:19;10.60;;;3.85;;
22449;SDS011;11392;57.390;-2.468;2023-04-24T10:06:51;11.40;;;2.90;;
22449;SDS011;11392;57.390;-2.468;2023-04-24T10:09:24;7.13;;;2.78;;
22449;SDS011;11392;57.390;-2.468;2023-04-24T10:11:54;10.43;;;3.38;;
22449;SDS011;11392;57.390;-2.468;2023-04-24T10:14:22;5.45;;;2.03;;
22449;SDS011;11392;57.390;-2.468;2023-04-24T10:16:52;6.60;;;2.50;;
22449;SDS011;11392;57.390;-2.468;2023-04-24T10:19:21;6.85;;;2.45;;
22449;SDS011;11392;57.390;-2.468;2023-04-24T10:21:51;9.02;;;2.33;;
22449;SDS011;11392;57.390;-2.468;2023-04-24T10:24:18;6.88;;;2.03;;
22449;SDS011;11392;57.390;-2.468;2023-04-24T10:26:47;4.38;;;2.03;;
22449;SDS011;11392;57.390;-2.468;2023-04-24T10:29:16;6.63;;;1.95;;
22449;SDS011;11392;57.390;-2.468;2023-04-24T10:31:44;4.40;;;1.98;;
22449;SDS011;11392;57.390;-2.468;2023-04-24T10:34:13;7.18;;;2.50;;
22449;SDS011;11392;57.390;-2.468;2023-04-24T10:36:44;7.88;;;2.03;;
22449;SDS011;11392;57.390;-2.468;2023-04-24T10:39:15;7.47;;;2.28;;
22449;SDS011;11392;57.390;-2.468;2023-04-24T10:41:43;6.82;;;2.10;;
22449;SDS011;11392;57.390;-2.468;2023-04-24T10:44:13;6.80;;;2.33;;
22449;SDS011;11392;57.390;-2.468;2023-04-24T10:46:45;4.20;;;1.95;;
22449;SDS011;11392;57.390;-2.468;2023-04-24T10:49:16;8.20;;;2.58;;
22449;SDS011;11392;57.390;-2.468;2023-04-24T10:51:53;9.60;;;2.45;;
22449;SDS011;11392;57.390;-2.468;2023-04-24T10:54:35;5.20;;;2.05;;
22449;SDS011;11392;57.390;-2.468;2023-04-24T10:59:47;8.73;;;1.70;;
22449;SDS011;11392;57.390;-2.468;2023-04-24T11:02:20;5.18;;;1.80;;
22449;SDS011;11392;57.390;-2.468;2023-04-24T11:05:03;4.43;;;1.73;;
22449;SDS011;11392;57.390;-2.468;2023-04-24T11:08:08;3.65;;;1.55;;
22449;SDS011;11392;57.390;-2.468;2023-04-24T11:10:43;5.65;;;1.70;;
22449;SDS011;11392;57.390;-2.468;2023-04-24T11:13:14;7.15;;;1.90;;
22449;SDS011;11392;57.390;-2.468;2023-04-24T11:15:43;6.45;;;1.70;;
22449;SDS011;11392;57.390;-2.468;2023-04-24T11:18:16;5.75;;;1.65;;
22449;SDS011;11392;57.390;-2.468;2023-04-24T11:20:43;3.80;;;1.77;;
22449;SDS011;11392;57.390;-2.468;2023-04-24T11:23:12;2.90;;;1.65;;
22449;SDS011;11392;57.390;-2.468;2023-04-24T11:25:41;4.93;;;1.58;;
22449;SDS011;11392;57.390;-2.468;2023-04-24T11:28:09;4.47;;;1.67;;
22449;SDS011;11392;57.390;-2.468;2023-04-24T11:30:42;3.53;;;1.40;;
22449;SDS011;11392;57.390;-2.468;2023-04-24T11:33:09;4.90;;;1.48;;
22449;SDS011;11392;57.390;-2.468;2023-04-24T11:35:39;2.58;;;1.48;;
22449;SDS011;11392;57.390;-2.468;2023-04-24T11:38:06;2.97;;;1.52;;
22449;SDS011;11392;57.390;-2.468;2023-04-24T11:40:49;3.55;;;1.15;;
22449;SDS011;11392;57.390;-2.468;2023-04-24T11:43:17;2.65;;;1.30;;
22449;SDS011;11392;57.390;-2.468;2023-04-24T11:45:49;5.60;;;2.10;;
22449;SDS011;11392;57.390;-2.468;2023-04-24T11:48:20;4.35;;;1.88;;
22449;SDS011;11392;57.390;-2.468;2023-04-24T11:50:49;6.38;;;1.70;;
22449;SDS011;11392;57.390;-2.468;2023-04-24T11:53:18;5.70;;;1.70;;
22449;SDS011;11392;57.390;-2.468;2023-04-24T11:55:48;4.18;;;1.60;;
22449;SDS011;11392;57.390;-2.468;2023-04-24T11:58:15;5.78;;;1.90;;
22449;SDS011;11392;57.390;-2.468;2023-04-24T12:00:54;7.53;;;1.75;;
22449;SDS011;11392;57.390;-2.468;2023-04-24T12:03:23;5.63;;;1.77;;
22449;SDS011;11392;57.390;-2.468;2023-04-24T12:05:51;7.70;;;2.00;;
22449;SDS011;11392;57.390;-2.468;2023-04-24T12:08:27;4.65;;;1.83;;
22449;SDS011;11392;57.390;-2.468;2023-04-24T12:10:55;3.97;;;1.92;;
22449;SDS011;11392;57.390;-2.468;2023-04-24T12:13:22;3.42;;;1.60;;
22449;SDS011;11392;57.390;-2.468;2023-04-24T12:15:52;3.63;;;1.60;;
22449;SDS011;11392;57.390;-2.468;2023-04-24T12:18:23;3.97;;;1.70;;
22449;SDS011;11392;57.390;-2.468;2023-04-24T12:20:50;5.40;;;2.03;;
22449;SDS011;11392;57.390;-2.468;2023-04-24T12:23:32;4.70;;;2.15;;
22449;SDS011;11392;57.390;-2.468;2023-04-24T12:26:04;6.70;;;1.77;;
22449;SDS011;11392;57.390;-2.468;2023-04-24T12:28:35;10.45;;;2.13;;
22449;SDS011;11392;57.390;-2.468;2023-04-24T12:31:03;5.80;;;2.25;;
22449;SDS011;11392;57.390;-2.468;2023-04-24T12:33:34;6.10;;;2.60;;
22449;SDS011;11392;57.390;-2.468;2023-04-24T12:36:03;7.93;;;2.22;;
22449;SDS011;11392;57.390;-2.468;2023-04-24T12:38:31;9.02;;;2.08;;
22449;SDS011;11392;57.390;-2.468;2023-04-24T12:41:07;6.60;;;2.10;;
22449;SDS011;11392;57.390;-2.468;2023-04-24T12:43:36;7.07;;;2.20;;
22449;SDS011;11392;57.390;-2.468;2023-04-24T12:46:04;5.25;;;1.75;;
22449;SDS011;11392;57.390;-2.468;2023-04-24T12:48:31;5.43;;;1.92;;
22449;SDS011;11392;57.390;-2.468;2023-04-24T12:50:59;6.72;;;1.85;;
22449;SDS011;11392;57.390;-2.468;2023-04-24T12:53:29;6.47;;;1.80;;
22449;SDS011;11392;57.390;-2.468;2023-04-24T12:55:57;7.72;;;1.83;;
22449;SDS011;11392;57.390;-2.468;2023-04-24T12:58:25;10.25;;;1.95;;
22449;SDS011;11392;57.390;-2.468;2023-04-24T13:00:52;8.23;;;1.90;;
22449;SDS011;11392;57.390;-2.468;2023-04-24T13:03:19;4.57;;;1.30;;
22449;SDS011;11392;57.390;-2.468;2023-04-24T13:05:47;4.78;;;1.60;;
22449;SDS011;11392;57.390;-2.468;2023-04-24T13:08:14;6.75;;;1.40;;
22449;SDS011;11392;57.390;-2.468;2023-04-24T13:10:41;4.68;;;1.42;;
22449;SDS011;11392;57.390;-2.468;2023-04-24T13:13:08;2.88;;;1.02;;
22449;SDS011;11392;57.390;-2.468;2023-04-24T13:15:35;5.50;;;1.60;;
22449;SDS011;11392;57.390;-2.468;2023-04-24T13:18:03;5.20;;;1.63;;
22449;SDS011;11392;57.390;-2.468;2023-04-24T13:20:30;4.65;;;2.13;;
22449;SDS011;11392;57.390;-2.468;2023-04-24T13:22:57;4.28;;;1.40;;
22449;SDS011;11392;57.390;-2.468;2023-04-24T13:25:24;6.93;;;1.95;;
22449;SDS011;11392;57.390;-2.468;2023-04-24T13:27:52;6.47;;;1.73;;
22449;SDS011;11392;57.390;-2.468;2023-04-24T13:30:19;4.63;;;1.83;;
22449;SDS011;11392;57.390;-2.468;2023-04-24T13:32:46;3.97;;;1.40;;
22449;SDS011;11392;57.390;-2.468;2023-04-24T13:35:13;5.18;;;1.25;;
22449;SDS011;11392;57.390;-2.468;2023-04-24T13:37:41;5.45;;;1.52;;
22449;SDS011;11392;57.390;-2.468;2023-04-24T13:40:08;2.50;;;1.30;;
22449;SDS011;11392;57.390;-2.468;2023-04-24T13:42:35;2.47;;;1.10;;
22449;SDS011;11392;57.390;-2.468;2023-04-24T13:45:03;2.92;;;1.20;;
22449;SDS011;11392;57.390;-2.468;2023-04-24T13:47:49;5.93;;;2.15;;
22449;SDS011;11392;57.390;-2.468;2023-04-24T13:50:17;6.20;;;2.20;;
22449;SDS011;11392;57.390;-2.468;2023-04-24T13:52:45;3.63;;;1.30;;
22449;SDS011;11392;57.390;-2.468;2023-04-24T13:55:12;8.52;;;1.65;;
22449;SDS011;11392;57.390;-2.468;2023-04-24T13:57:39;3.13;;;1.35;;
22449;SDS011;11392;57.390;-2.468;2023-04-24T14:00:06;2.72;;;1.38;;
22449;SDS011;11392;57.390;-2.468;2023-04-24T14:02:36;2.35;;;1.42;;
22449;SDS011;11392;57.390;-2.468;2023-04-24T14:05:04;4.40;;;1.48;;
22449;SDS011;11392;57.390;-2.468;2023-04-24T14:07:32;5.70;;;1.50;;
22449;SDS011;11392;57.390;-2.468;2023-04-24T14:09:59;4.57;;;1.33;;
22449;SDS011;11392;57.390;-2.468;2023-04-24T14:12:26;4.22;;;1.17;;
22449;SDS011;11392;57.390;-2.468;2023-04-24T14:14:54;4.93;;;1.60;;
22449;SDS011;11392;57.390;-2.468;2023-04-24T14:17:21;2.35;;;1.20;;
22449;SDS011;11392;57.390;-2.468;2023-04-24T14:19:48;4.07;;;1.17;;
22449;SDS011;11392;57.390;-2.468;2023-04-24T14:22:15;5.22;;;1.40;;
22449;SDS011;11392;57.390;-2.468;2023-04-24T14:24:43;2.13;;;0.82;;
22449;SDS011;11392;57.390;-2.468;2023-04-24T14:27:10;4.57;;;0.95;;
22449;SDS011;11392;57.390;-2.468;2023-04-24T14:29:37;2.45;;;1.08;;
22449;SDS011;11392;57.390;-2.468;2023-04-24T14:32:03;4.82;;;1.10;;
22449;SDS011;11392;57.390;-2.468;2023-04-24T14:34:31;1.60;;;1.17;;
22449;SDS011;11392;57.390;-2.468;2023-04-24T14:36:58;9.05;;;1.40;;
22449;SDS011;11392;57.390;-2.468;2023-04-24T14:39:25;3.58;;;1.17;;
22449;SDS011;11392;57.390;-2.468;2023-04-24T14:41:52;5.95;;;1.50;;
22449;SDS011;11392;57.390;-2.468;2023-04-24T14:44:19;2.50;;;1.08;;
22449;SDS011;11392;57.390;-2.468;2023-04-24T14:46:48;5.78;;;1.38;;
22449;SDS011;11392;57.390;-2.468;2023-04-24T14:49:15;3.63;;;1.52;;